createdAt,value
2018-09-04T00:01:02.354Z,35.33
2018-09-04T00:03:35.241Z,34.97
2018-09-04T00:06:08.288Z,36.63
2018-09-04T00:08:41.721Z,35.83
2018-09-04T00:11:14.710Z,36.43
2018-09-04T00:13:43.598Z,39.60
2018-09-04T00:16:12.492Z,37.93
2018-09-04T00:18:41.663Z,37.20
2018-09-04T00:21:10.558Z,37.70
2018-09-04T00:23:39.689Z,37.10
2018-09-04T00:26:08.584Z,37.53
2018-09-04T00:28:39.554Z,37.27
2018-09-04T00:31:08.579Z,37.47
2018-09-04T00:33:39.478Z,36.07
2018-09-04T00:36:09.210Z,35.67
2018-09-04T00:38:38.301Z,34.80
2018-09-04T00:41:25.840Z,34.77
2018-09-04T00:44:02.821Z,37.30
2018-09-04T00:46:31.737Z,37.67
2018-09-04T00:49:00.641Z,36.00
2018-09-04T00:51:31.553Z,35.40
2018-09-04T00:57:06.712Z,34.33
2018-09-04T00:59:35.591Z,35.17
2018-09-04T01:02:04.479Z,36.10
2018-09-04T01:04:41.577Z,37.87
2018-09-04T01:07:12.078Z,37.93
2018-09-04T01:09:41.147Z,37.33
2018-09-04T01:12:10.284Z,37.40
2018-09-04T01:14:41.515Z,38.60
2018-09-04T01:17:10.608Z,38.70
2018-09-04T01:19:39.745Z,39.80
2018-09-04T01:22:08.650Z,40.10
2018-09-04T01:24:37.596Z,38.67
2018-09-04T01:27:06.501Z,39.93
2018-09-04T01:29:35.457Z,38.57
2018-09-04T01:32:04.367Z,39.80
2018-09-04T01:34:33.271Z,39.80
2018-09-04T01:37:02.172Z,39.57
2018-09-04T01:39:32.103Z,38.97
2018-09-04T01:42:01.150Z,39.93
2018-09-04T01:44:30.060Z,39.87
2018-09-04T01:46:58.959Z,38.77
2018-09-04T01:49:27.878Z,40.03
2018-09-04T01:51:56.942Z,39.67
2018-09-04T01:54:25.816Z,37.87
2018-09-04T01:56:54.720Z,39.97
2018-09-04T01:59:38.337Z,38.27
2018-09-04T02:02:07.232Z,39.97
2018-09-04T02:04:36.123Z,38.77
2018-09-04T02:07:09.961Z,37.10
2018-09-04T02:09:39.865Z,37.10
2018-09-04T02:12:10.809Z,37.17
2018-09-04T02:14:39.824Z,36.80
2018-09-04T02:17:08.757Z,34.23
2018-09-04T02:19:37.697Z,35.23
2018-09-04T02:22:06.644Z,37.43
2018-09-04T02:24:35.525Z,36.77
2018-09-04T02:27:21.447Z,37.37
2018-09-04T02:30:02.596Z,35.43
2018-09-04T02:32:31.508Z,37.27
2018-09-04T02:35:00.485Z,37.53
2018-09-04T02:37:29.539Z,38.13
2018-09-04T02:40:09.677Z,36.53
2018-09-04T02:42:44.210Z,37.63
2018-09-04T02:45:22.914Z,36.50
2018-09-04T02:47:51.805Z,36.77
2018-09-04T02:50:21.207Z,37.00
2018-09-04T02:52:57.068Z,37.90
2018-09-04T02:55:36.710Z,37.00
2018-09-04T02:58:05.824Z,36.50
2018-09-04T03:00:35.791Z,38.43
2018-09-04T03:03:08.613Z,42.03
2018-09-04T03:05:37.787Z,38.40
2018-09-04T03:08:06.839Z,39.13
2018-09-04T03:10:35.735Z,37.63
2018-09-04T03:13:08.582Z,37.90
2018-09-04T03:18:37.198Z,37.77
2018-09-04T03:21:14.018Z,39.63
2018-09-04T03:23:42.913Z,39.37
2018-09-04T03:26:11.777Z,36.90
2018-09-04T03:28:48.117Z,37.90
2018-09-04T03:31:17.195Z,38.40
2018-09-04T03:33:46.113Z,38.30
2018-09-04T03:36:15.006Z,41.33
2018-09-04T03:38:43.917Z,37.67
2018-09-04T03:41:15.122Z,39.33
2018-09-04T03:43:44.058Z,42.23
2018-09-04T03:46:20.940Z,41.40
2018-09-04T03:48:49.898Z,40.27
2018-09-04T03:51:38.932Z,41.83
2018-09-04T03:54:08.944Z,40.50
2018-09-04T03:56:43.277Z,38.77
2018-09-04T03:59:16.276Z,38.20
2018-09-04T04:01:46.822Z,37.27
2018-09-04T04:04:15.789Z,38.43
2018-09-04T04:06:44.678Z,40.77
2018-09-04T04:09:13.704Z,38.80
2018-09-04T04:11:42.604Z,40.50
2018-09-04T04:14:12.568Z,40.53
2018-09-04T04:16:47.124Z,43.57
2018-09-04T04:19:22.865Z,42.47
2018-09-04T04:21:52.911Z,43.10
2018-09-04T04:24:35.026Z,43.10
2018-09-04T04:27:11.443Z,40.70
2018-09-04T04:29:40.367Z,39.53
2018-09-04T04:32:12.841Z,40.80
2018-09-04T04:34:45.521Z,40.43
2018-09-04T04:37:14.425Z,40.33
2018-09-04T04:39:59.986Z,43.60
2018-09-04T04:42:29.014Z,42.40
2018-09-04T04:44:57.931Z,43.03
2018-09-04T04:47:32.294Z,43.07
2018-09-04T04:50:01.303Z,41.73
2018-09-04T04:52:30.229Z,43.17
2018-09-04T04:54:59.110Z,42.13
2018-09-04T04:57:28.002Z,41.10
2018-09-04T05:00:02.574Z,40.80
2018-09-04T05:02:31.822Z,43.57
2018-09-04T05:05:02.817Z,41.83
2018-09-04T05:07:36.875Z,44.13
2018-09-04T05:10:19.286Z,45.20
2018-09-04T05:12:48.491Z,43.70
2018-09-04T05:15:17.483Z,44.63
2018-09-04T05:17:51.992Z,43.43
2018-09-04T05:20:24.211Z,42.50
2018-09-04T05:23:00.733Z,42.10
2018-09-04T05:25:36.248Z,43.87
2018-09-04T05:28:05.277Z,45.27
2018-09-04T05:30:57.194Z,46.10
2018-09-04T05:33:32.185Z,45.43
2018-09-04T05:36:03.137Z,45.43
2018-09-04T05:38:36.685Z,47.27
2018-09-04T05:41:12.215Z,44.93
2018-09-04T05:43:59.624Z,48.00
2018-09-04T05:46:39.015Z,46.57
2018-09-04T05:49:08.533Z,47.67
2018-09-04T05:51:41.593Z,48.83
2018-09-04T05:54:10.590Z,46.53
2018-09-04T05:56:53.107Z,46.17
2018-09-04T05:59:22.042Z,45.93
2018-09-04T06:01:52.029Z,45.97
2018-09-04T06:04:28.189Z,47.07
2018-09-04T06:06:58.104Z,46.77
2018-09-04T06:09:35.405Z,48.97
2018-09-04T06:12:05.413Z,49.60
2018-09-04T06:14:46.983Z,48.07
2018-09-04T06:17:17.907Z,50.53
2018-09-04T06:20:03.346Z,46.83
2018-09-04T06:22:39.381Z,49.43
2018-09-04T06:25:10.338Z,49.17
2018-09-04T06:27:46.808Z,48.60
2018-09-04T06:30:40.065Z,48.60
2018-09-04T06:33:17.145Z,47.53
2018-09-04T06:35:46.031Z,49.63
2018-09-04T06:38:20.641Z,50.17
2018-09-04T06:40:59.357Z,48.77
2018-09-04T06:43:34.976Z,49.13
2018-09-04T06:46:08.104Z,48.93
2018-09-04T06:48:37.380Z,51.93
2018-09-04T06:51:09.724Z,49.03
2018-09-04T06:53:44.408Z,47.73
2018-09-04T06:56:21.594Z,51.77
2018-09-04T06:58:50.582Z,50.67
2018-09-04T07:01:20.463Z,51.37
2018-09-04T07:03:49.571Z,52.83
2018-09-04T07:06:26.692Z,56.27
2018-09-04T07:09:08.358Z,53.37
2018-09-04T07:11:48.967Z,55.77
2018-09-04T07:14:22.241Z,52.57
2018-09-04T07:16:52.779Z,51.33
2018-09-04T07:19:24.987Z,52.90
2018-09-04T07:21:56.020Z,50.77
2018-09-04T07:24:29.153Z,51.50
2018-09-04T07:27:04.495Z,53.97
2018-09-04T07:29:34.358Z,55.97
2018-09-04T07:32:03.257Z,54.87
2018-09-04T07:34:32.157Z,57.00
2018-09-04T07:37:01.056Z,60.87
2018-09-04T07:39:35.414Z,54.80
2018-09-04T07:42:07.736Z,53.00
2018-09-04T07:44:49.125Z,52.87
2018-09-04T07:47:18.216Z,55.90
2018-09-04T07:49:47.205Z,51.70
2018-09-04T07:52:16.378Z,66.17
2018-09-04T07:57:48.972Z,69.47
2018-09-04T08:00:17.814Z,71.40
2018-09-04T08:02:46.864Z,73.90
2018-09-04T08:05:15.779Z,72.87
2018-09-04T08:07:44.684Z,78.57
2018-09-04T08:10:19.815Z,74.10
2018-09-04T08:12:48.692Z,73.47
2018-09-04T08:15:17.626Z,73.83
2018-09-04T08:17:48.809Z,66.80
2018-09-04T08:20:27.722Z,71.10
2018-09-04T08:22:56.791Z,80.33
2018-09-04T08:25:26.501Z,78.37
2018-09-04T08:27:55.458Z,72.37
2018-09-04T08:30:24.732Z,82.33
2018-09-04T08:32:53.690Z,73.90
2018-09-04T08:35:27.515Z,72.27
2018-09-04T08:37:59.494Z,76.83
2018-09-04T08:40:29.534Z,82.17
2018-09-04T08:48:53.080Z,81.40
2018-09-04T08:51:22.039Z,85.77
2018-09-04T08:53:50.905Z,75.33
2018-09-04T08:56:19.972Z,80.43
2018-09-04T08:58:48.858Z,86.33
2018-09-04T09:01:17.748Z,82.87
2018-09-04T09:06:45.228Z,69.07
2018-09-04T09:09:14.136Z,86.20
2018-09-04T09:11:49.180Z,84.03
2018-09-04T09:14:18.107Z,82.03
2018-09-04T09:16:47.060Z,82.67
2018-09-04T09:19:26.319Z,84.73
2018-09-04T09:21:55.221Z,76.30
2018-09-04T09:24:24.123Z,66.63
2018-09-04T09:26:53.013Z,72.80
2018-09-04T09:29:21.910Z,71.30
2018-09-04T09:31:56.515Z,75.93
2018-09-04T09:34:25.427Z,68.77
2018-09-04T09:36:54.565Z,70.57
2018-09-04T09:39:23.789Z,74.43
2018-09-04T09:42:06.139Z,78.33
2018-09-04T09:44:35.140Z,75.23
2018-09-04T09:47:10.025Z,75.23
2018-09-04T09:49:42.251Z,72.97
2018-09-04T09:52:27.711Z,68.93
2018-09-04T09:55:01.434Z,76.83
2018-09-04T09:57:43.285Z,69.20
2018-09-04T10:00:31.117Z,68.40
2018-09-04T10:03:04.056Z,70.53
2018-09-04T10:08:33.201Z,79.53
2018-09-04T10:11:02.263Z,66.93
2018-09-04T10:13:49.324Z,72.57
2018-09-04T10:16:22.659Z,73.50
2018-09-04T10:19:02.099Z,66.03
2018-09-04T10:21:31.244Z,75.00
2018-09-04T10:24:04.054Z,68.53
2018-09-04T10:26:40.081Z,75.53
2018-09-04T10:29:14.789Z,68.93
2018-09-04T10:31:50.364Z,71.47
2018-09-04T10:34:19.257Z,73.47
2018-09-04T10:36:48.169Z,67.33
2018-09-04T10:39:28.002Z,70.77
2018-09-04T10:41:56.887Z,65.83
2018-09-04T10:44:28.207Z,63.90
2018-09-04T10:46:57.039Z,67.20
2018-09-04T10:49:25.957Z,64.93
2018-09-04T10:51:54.831Z,63.97
2018-09-04T10:54:23.715Z,66.77
2018-09-04T10:56:52.683Z,66.03
2018-09-04T10:59:21.587Z,57.40
2018-09-04T11:01:55.529Z,64.87
2018-09-04T11:04:28.251Z,63.20
2018-09-04T11:06:57.174Z,65.47
2018-09-04T11:09:26.227Z,64.27
2018-09-04T11:17:56.058Z,59.80
2018-09-04T11:20:24.968Z,58.43
2018-09-04T11:23:13.592Z,61.90
2018-09-04T11:25:45.856Z,61.33
2018-09-04T11:28:14.959Z,60.83
2018-09-04T11:30:43.854Z,60.03
2018-09-04T11:33:37.078Z,57.17
2018-09-04T11:36:15.965Z,53.70
2018-09-04T11:38:59.188Z,61.20
2018-09-04T11:41:28.213Z,56.83
2018-09-04T11:43:57.176Z,55.13
2018-09-04T11:46:44.710Z,56.37
2018-09-04T11:49:17.342Z,48.00
2018-09-04T11:52:04.946Z,55.73
2018-09-04T11:54:40.981Z,52.53
2018-09-04T11:57:14.345Z,52.87
2018-09-04T11:59:44.734Z,52.87
2018-09-04T12:02:44.881Z,50.60
2018-09-04T12:05:13.784Z,50.50
2018-09-04T12:07:42.821Z,49.67
2018-09-04T12:10:11.682Z,48.37
2018-09-04T12:13:00.439Z,49.57
2018-09-04T12:15:41.992Z,50.97
2018-09-04T12:18:17.218Z,48.97
2018-09-04T12:20:54.255Z,45.57
2018-09-04T12:23:27.906Z,49.70
2018-09-04T12:26:06.536Z,47.53
2018-09-04T12:28:38.628Z,48.37
2018-09-04T12:31:09.867Z,46.30
2018-09-04T12:33:44.120Z,45.83
2018-09-04T12:36:16.768Z,42.13
2018-09-04T12:39:06.435Z,41.13
2018-09-04T12:41:50.061Z,41.40
2018-09-04T12:44:23.074Z,43.63
2018-09-04T12:46:57.083Z,36.57
2018-09-04T12:49:26.056Z,41.20
2018-09-04T12:51:57.025Z,43.00
2018-09-04T12:54:25.961Z,40.17
2018-09-04T12:56:54.849Z,43.13
2018-09-04T12:59:23.698Z,39.87
2018-09-04T13:01:52.566Z,45.57
2018-09-04T13:04:22.465Z,40.73
2018-09-04T13:06:55.177Z,45.77
2018-09-04T13:09:24.058Z,39.83
2018-09-04T13:12:05.343Z,38.77
2018-09-04T13:17:27.289Z,34.47
2018-09-04T13:19:57.187Z,39.70
2018-09-04T13:22:39.111Z,40.97
2018-09-04T13:25:08.066Z,35.93
2018-09-04T13:27:47.890Z,35.43
2018-09-04T13:30:20.193Z,31.53
2018-09-04T13:33:01.985Z,32.03
2018-09-04T13:35:36.219Z,34.17
2018-09-04T13:38:09.411Z,32.90
2018-09-04T13:40:42.544Z,32.07
2018-09-04T13:43:11.527Z,33.23
2018-09-04T13:45:44.717Z,33.50
2018-09-04T13:48:13.675Z,35.67
2018-09-04T13:50:44.604Z,30.77
2018-09-04T13:56:06.877Z,36.80
2018-09-04T13:58:35.846Z,34.30
2018-09-04T14:01:10.404Z,39.87
2018-09-04T14:03:43.258Z,38.50
2018-09-04T14:06:16.167Z,40.10
2018-09-04T14:08:45.136Z,38.93
2018-09-04T14:11:14.096Z,42.30
2018-09-04T14:13:43.096Z,37.73
2018-09-04T14:16:17.741Z,43.40
2018-09-04T14:18:54.948Z,42.27
2018-09-04T14:21:33.858Z,41.00
2018-09-04T14:24:04.002Z,40.83
2018-09-04T14:26:33.000Z,44.00
2018-09-04T14:29:07.566Z,41.40
2018-09-04T14:31:33.820Z,42.10
2018-09-04T14:34:03.825Z,37.50
2018-09-04T14:36:33.115Z,38.63
2018-09-04T14:39:07.774Z,37.03
2018-09-04T14:41:41.135Z,36.23
2018-09-04T14:44:30.543Z,37.40
2018-09-04T14:47:01.458Z,31.97
2018-09-04T14:49:30.411Z,38.60
2018-09-04T14:51:59.360Z,34.60
2018-09-04T14:54:35.179Z,32.83
2018-09-04T14:57:04.176Z,37.07
2018-09-04T14:59:36.476Z,28.63
2018-09-04T15:02:05.376Z,33.23
2018-09-04T15:04:38.882Z,34.50
2018-09-04T15:07:19.363Z,31.20
2018-09-04T15:09:55.176Z,31.90
2018-09-04T15:12:34.089Z,33.73
2018-09-04T15:15:13.959Z,28.63
2018-09-04T15:17:56.370Z,27.93
2018-09-04T15:20:26.699Z,28.73
2018-09-04T15:22:56.664Z,27.47
2018-09-04T15:25:26.695Z,27.50
2018-09-04T15:27:57.613Z,30.87
2018-09-04T15:30:27.558Z,33.10
2018-09-04T15:32:56.496Z,36.10
2018-09-04T15:35:25.557Z,33.50
2018-09-04T15:37:54.558Z,33.10
2018-09-04T15:40:30.757Z,29.90
2018-09-04T15:42:59.928Z,27.33
2018-09-04T15:45:30.325Z,32.97
2018-09-04T15:48:00.752Z,34.57
2018-09-04T15:50:29.907Z,31.23
2018-09-04T15:52:58.856Z,34.17
2018-09-04T15:58:21.619Z,31.77
2018-09-04T16:00:52.578Z,30.47
2018-09-04T16:03:23.691Z,31.90
2018-09-04T16:05:53.648Z,30.53
2018-09-04T16:08:26.233Z,29.63
2018-09-04T16:10:55.488Z,18.27
2018-09-04T16:13:27.960Z,13.63
2018-09-04T16:16:02.816Z,15.40
2018-09-04T16:18:51.442Z,14.47
2018-09-04T16:21:22.417Z,13.87
2018-09-04T16:23:53.372Z,17.63
2018-09-04T16:26:41.984Z,19.03
2018-09-04T16:29:14.783Z,17.23
2018-09-04T16:31:51.042Z,17.87
2018-09-04T16:34:25.483Z,17.67
2018-09-04T16:36:56.349Z,16.57
2018-09-04T16:39:26.665Z,17.00
2018-09-04T16:41:58.890Z,16.43
2018-09-04T16:44:28.911Z,17.47
2018-09-04T16:47:00.971Z,16.73
2018-09-04T16:49:34.774Z,18.23
2018-09-04T16:52:03.685Z,17.80
2018-09-04T16:54:32.612Z,18.40
2018-09-04T16:57:01.587Z,16.30
2018-09-04T16:59:30.753Z,17.20
2018-09-04T17:02:03.409Z,15.67
2018-09-04T17:04:33.365Z,16.03
2018-09-04T17:07:06.936Z,14.63
2018-09-04T17:09:37.889Z,14.80
2018-09-04T17:12:06.815Z,15.37
2018-09-04T17:14:36.714Z,14.53
2018-09-04T17:17:06.719Z,14.80
2018-09-04T17:19:42.136Z,17.40
2018-09-04T17:22:13.452Z,16.00
2018-09-04T17:24:50.443Z,15.90
2018-09-04T17:27:20.409Z,16.70
2018-09-04T17:29:49.406Z,17.37
2018-09-04T17:32:23.633Z,17.27
2018-09-04T17:34:55.574Z,16.90
2018-09-04T17:37:25.517Z,16.93
2018-09-04T17:39:54.870Z,16.80
2018-09-04T17:42:27.062Z,18.60
2018-09-04T17:44:55.969Z,18.50
2018-09-04T17:47:27.929Z,17.70
2018-09-04T17:49:57.916Z,17.53
2018-09-04T17:52:27.836Z,18.53
2018-09-04T17:55:02.104Z,17.70
2018-09-04T17:57:32.184Z,17.57
2018-09-04T18:00:13.254Z,17.53
2018-09-04T18:02:42.207Z,16.83
2018-09-04T18:05:16.869Z,18.73
2018-09-04T18:07:49.327Z,19.20
2018-09-04T18:10:22.020Z,19.13
2018-09-04T18:12:54.035Z,18.67
2018-09-04T18:15:24.961Z,19.90
2018-09-04T18:17:53.992Z,20.63
2018-09-04T18:20:30.943Z,19.80
2018-09-04T18:23:01.874Z,19.83
2018-09-04T18:25:32.916Z,19.43
2018-09-04T18:28:01.968Z,18.80
2018-09-04T18:30:32.381Z,18.77
2018-09-04T18:33:05.628Z,19.90
2018-09-04T18:35:35.683Z,19.30
2018-09-04T18:38:04.864Z,19.80
2018-09-04T18:40:44.297Z,19.70
2018-09-04T18:43:13.465Z,19.40
2018-09-04T18:45:50.277Z,20.70
2018-09-04T18:48:23.473Z,20.67
2018-09-04T18:50:58.989Z,20.30
2018-09-04T18:53:27.961Z,18.57
2018-09-04T18:55:56.838Z,19.40
2018-09-04T18:58:36.528Z,18.77
2018-09-04T19:01:05.539Z,19.40
2018-09-04T19:03:44.029Z,20.20
2018-09-04T19:06:14.914Z,20.40
2018-09-04T19:08:45.025Z,19.87
2018-09-04T19:11:28.801Z,19.23
2018-09-04T19:13:59.826Z,20.40
2018-09-04T19:16:49.041Z,19.70
2018-09-04T19:22:25.345Z,20.60
2018-09-04T19:25:00.271Z,21.13
2018-09-04T19:27:29.673Z,19.50
2018-09-04T19:30:02.139Z,19.83
2018-09-04T19:32:35.786Z,19.97
2018-09-04T19:37:58.636Z,19.53
2018-09-04T19:40:38.738Z,19.43
2018-09-04T19:43:08.691Z,19.40
2018-09-04T19:46:00.575Z,19.63
2018-09-04T19:48:29.474Z,20.67
2018-09-04T19:51:12.088Z,20.20
2018-09-04T19:53:57.815Z,20.73
2018-09-04T19:59:26.078Z,21.23
2018-09-04T20:01:56.306Z,21.10
2018-09-04T20:04:26.523Z,21.00
2018-09-04T20:06:56.178Z,20.27
2018-09-04T20:09:27.281Z,21.13
2018-09-04T20:11:56.661Z,20.77
2018-09-04T20:17:18.831Z,21.43
2018-09-04T20:19:54.468Z,22.33
2018-09-04T20:22:29.150Z,21.33
2018-09-04T20:25:05.946Z,21.27
2018-09-04T20:27:47.345Z,20.87
2018-09-04T20:30:26.961Z,22.77
2018-09-04T20:32:55.902Z,22.27
2018-09-04T20:35:25.837Z,22.10
2018-09-04T20:37:59.759Z,20.93
2018-09-04T20:43:34.979Z,20.67
2018-09-04T20:46:09.642Z,21.53
2018-09-04T20:48:39.676Z,21.70
2018-09-04T20:51:08.624Z,21.97
2018-09-04T20:53:37.570Z,22.10
2018-09-04T20:56:06.885Z,22.30
2018-09-04T20:58:47.239Z,22.13
2018-09-04T21:01:30.613Z,22.80
2018-09-04T21:04:10.870Z,22.30
2018-09-04T21:06:45.982Z,21.87
2018-09-04T21:09:49.212Z,22.13
2018-09-04T21:12:20.190Z,21.97
2018-09-04T21:17:46.060Z,22.47
2018-09-04T21:20:15.049Z,22.63
2018-09-04T21:22:45.029Z,22.57
2018-09-04T21:28:23.378Z,21.80
2018-09-04T21:30:53.464Z,22.37
2018-09-04T21:33:22.720Z,22.70
2018-09-04T21:36:03.011Z,24.70
2018-09-04T21:38:32.024Z,22.47
2018-09-04T21:41:13.020Z,23.10
2018-09-04T21:43:42.096Z,24.73
2018-09-04T21:46:11.300Z,26.03
2018-09-04T21:48:41.619Z,24.87
2018-09-04T21:51:10.764Z,29.20
2018-09-04T21:53:47.124Z,27.73
2018-09-04T21:56:21.755Z,27.70
2018-09-04T21:58:50.849Z,27.93
2018-09-04T22:01:19.735Z,28.30
2018-09-04T22:03:49.874Z,26.87
2018-09-04T22:06:18.808Z,27.03
2018-09-04T22:08:58.644Z,26.90
2018-09-04T22:11:44.041Z,27.83
2018-09-04T22:14:12.966Z,27.53
2018-09-04T22:16:41.924Z,28.23
2018-09-04T22:19:10.822Z,25.30
2018-09-04T22:24:46.188Z,26.47
2018-09-04T22:27:25.198Z,25.20
2018-09-04T22:29:54.087Z,26.20
2018-09-04T22:32:23.193Z,23.97
2018-09-04T22:35:04.451Z,25.63
2018-09-04T22:37:35.391Z,23.93
2018-09-04T22:40:23.073Z,23.17
2018-09-04T22:42:51.982Z,23.87
2018-09-04T22:45:20.929Z,23.20
2018-09-04T22:47:49.887Z,23.67
2018-09-04T22:50:24.233Z,22.70
2018-09-04T22:52:53.177Z,22.10
2018-09-04T22:55:22.113Z,23.30
2018-09-04T22:57:53.151Z,21.80
2018-09-04T23:00:27.213Z,22.90
2018-09-04T23:02:58.209Z,23.13
2018-09-04T23:05:27.889Z,23.23
2018-09-04T23:07:56.793Z,23.37
2018-09-04T23:10:42.013Z,22.47
2018-09-04T23:13:23.517Z,22.80
2018-09-04T23:15:52.475Z,22.67
2018-09-04T23:18:21.419Z,23.17
2018-09-04T23:20:50.648Z,22.53
2018-09-04T23:23:19.577Z,21.27
2018-09-04T23:25:55.446Z,21.87
2018-09-04T23:28:24.373Z,22.67
2018-09-04T23:30:53.254Z,21.60
2018-09-04T23:33:22.184Z,21.50
2018-09-04T23:35:51.058Z,21.90
2018-09-04T23:38:23.389Z,22.07
2018-09-04T23:40:52.961Z,22.13
2018-09-04T23:43:21.924Z,22.67
2018-09-04T23:45:50.781Z,22.10
2018-09-04T23:48:25.881Z,21.83
2018-09-04T23:50:54.768Z,21.13
2018-09-04T23:53:23.671Z,20.87
2018-09-04T23:55:52.569Z,20.73
2018-09-04T23:58:27.064Z,21.40
